sensor_id;sensor_type;location;lat;lon;timestamp;P1;durP1;ratioP1;P2;durP2;ratioP2
78781;SDS011;68126;55.748;48.742;2023-07-24T00:03:35;5.28;;;2.62;;
78781;SDS011;68126;55.748;48.742;2023-07-24T00:08:59;3.47;;;1.82;;
78781;SDS011;68126;55.748;48.742;2023-07-24T00:14:24;7.17;;;1.77;;
78781;SDS011;68126;55.748;48.742;2023-07-24T00:19:49;3.35;;;2.17;;
78781;SDS011;68126;55.748;48.742;2023-07-24T00:25:14;4.60;;;2.70;;
78781;SDS011;68126;55.748;48.742;2023-07-24T00:36:07;3.55;;;2.15;;
78781;SDS011;68126;55.748;48.742;2023-07-24T00:41:32;3.72;;;2.37;;
78781;SDS011;68126;55.748;48.742;2023-07-24T00:46:57;3.10;;;2.08;;
78781;SDS011;68126;55.748;48.742;2023-07-24T00:52:22;3.10;;;2.22;;
78781;SDS011;68126;55.748;48.742;2023-07-24T00:57:47;2.83;;;1.90;;
78781;SDS011;68126;55.748;48.742;2023-07-24T01:03:11;2.65;;;1.85;;
78781;SDS011;68126;55.748;48.742;2023-07-24T01:08:36;4.47;;;2.22;;
78781;SDS011;68126;55.748;48.742;2023-07-24T01:19:46;3.05;;;2.02;;
78781;SDS011;68126;55.748;48.742;2023-07-24T01:25:17;3.02;;;1.90;;
78781;SDS011;68126;55.748;48.742;2023-07-24T01:30:37;3.25;;;2.22;;
78781;SDS011;68126;55.748;48.742;2023-07-24T01:36:02;3.30;;;3.00;;
78781;SDS011;68126;55.748;48.742;2023-07-24T01:41:27;4.83;;;1.92;;
78781;SDS011;68126;55.748;48.742;2023-07-24T01:46:52;2.87;;;1.98;;
78781;SDS011;68126;55.748;48.742;2023-07-24T01:52:17;2.55;;;1.62;;
78781;SDS011;68126;55.748;48.742;2023-07-24T01:57:42;2.92;;;1.77;;
78781;SDS011;68126;55.748;48.742;2023-07-24T02:03:07;2.80;;;1.67;;
78781;SDS011;68126;55.748;48.742;2023-07-24T02:08:31;2.58;;;1.92;;
78781;SDS011;68126;55.748;48.742;2023-07-24T02:13:56;3.25;;;1.67;;
78781;SDS011;68126;55.748;48.742;2023-07-24T02:19:21;3.58;;;1.80;;
78781;SDS011;68126;55.748;48.742;2023-07-24T02:24:46;2.37;;;1.67;;
78781;SDS011;68126;55.748;48.742;2023-07-24T02:30:11;2.12;;;1.45;;
78781;SDS011;68126;55.748;48.742;2023-07-24T02:41:21;3.37;;;1.70;;
78781;SDS011;68126;55.748;48.742;2023-07-24T02:46:46;3.67;;;2.00;;
78781;SDS011;68126;55.748;48.742;2023-07-24T02:52:10;2.77;;;1.77;;
78781;SDS011;68126;55.748;48.742;2023-07-24T02:57:35;3.50;;;1.80;;
78781;SDS011;68126;55.748;48.742;2023-07-24T03:03:00;4.12;;;1.80;;
78781;SDS011;68126;55.748;48.742;2023-07-24T03:08:24;4.85;;;1.95;;
78781;SDS011;68126;55.748;48.742;2023-07-24T03:13:49;4.20;;;1.65;;
78781;SDS011;68126;55.748;48.742;2023-07-24T03:19:14;3.00;;;1.82;;
78781;SDS011;68126;55.748;48.742;2023-07-24T03:24:39;2.37;;;1.65;;
78781;SDS011;68126;55.748;48.742;2023-07-24T03:35:31;3.62;;;1.77;;
78781;SDS011;68126;55.748;48.742;2023-07-24T03:40:56;6.37;;;2.47;;
78781;SDS011;68126;55.748;48.742;2023-07-24T03:46:21;4.37;;;1.67;;
78781;SDS011;68126;55.748;48.742;2023-07-24T03:51:45;3.22;;;1.92;;
78781;SDS011;68126;55.748;48.742;2023-07-24T03:57:10;4.72;;;2.20;;
78781;SDS011;68126;55.748;48.742;2023-07-24T04:08:02;3.80;;;2.83;;
78781;SDS011;68126;55.748;48.742;2023-07-24T04:13:27;1.90;;;1.55;;
78781;SDS011;68126;55.748;48.742;2023-07-24T04:18:51;3.00;;;1.82;;
78781;SDS011;68126;55.748;48.742;2023-07-24T04:24:16;3.75;;;2.08;;
78781;SDS011;68126;55.748;48.742;2023-07-24T04:29:41;5.65;;;2.10;;
78781;SDS011;68126;55.748;48.742;2023-07-24T04:35:06;6.72;;;2.00;;
78781;SDS011;68126;55.748;48.742;2023-07-24T04:40:31;6.60;;;1.98;;
78781;SDS011;68126;55.748;48.742;2023-07-24T04:45:56;4.00;;;2.10;;
78781;SDS011;68126;55.748;48.742;2023-07-24T04:51:20;6.22;;;2.10;;
78781;SDS011;68126;55.748;48.742;2023-07-24T04:56:45;4.42;;;2.02;;
78781;SDS011;68126;55.748;48.742;2023-07-24T05:02:10;5.92;;;2.22;;
78781;SDS011;68126;55.748;48.742;2023-07-24T05:07:35;3.92;;;1.60;;
78781;SDS011;68126;55.748;48.742;2023-07-24T05:12:59;4.87;;;1.37;;
78781;SDS011;68126;55.748;48.742;2023-07-24T05:18:24;3.25;;;1.57;;
78781;SDS011;68126;55.748;48.742;2023-07-24T05:23:49;5.78;;;2.27;;
78781;SDS011;68126;55.748;48.742;2023-07-24T05:29:14;3.22;;;1.85;;
78781;SDS011;68126;55.748;48.742;2023-07-24T05:34:39;2.90;;;1.50;;
78781;SDS011;68126;55.748;48.742;2023-07-24T05:40:04;4.05;;;1.95;;
78781;SDS011;68126;55.748;48.742;2023-07-24T05:45:29;3.30;;;1.98;;
78781;SDS011;68126;55.748;48.742;2023-07-24T05:50:53;5.70;;;2.42;;
78781;SDS011;68126;55.748;48.742;2023-07-24T05:56:18;6.08;;;2.87;;
78781;SDS011;68126;55.748;48.742;2023-07-24T06:01:43;4.87;;;2.30;;
78781;SDS011;68126;55.748;48.742;2023-07-24T06:07:08;4.85;;;2.45;;
78781;SDS011;68126;55.748;48.742;2023-07-24T06:12:33;3.58;;;1.87;;
78781;SDS011;68126;55.748;48.742;2023-07-24T06:17:57;4.72;;;2.42;;
78781;SDS011;68126;55.748;48.742;2023-07-24T06:23:22;4.03;;;2.25;;
78781;SDS011;68126;55.748;48.742;2023-07-24T06:28:47;3.87;;;2.58;;
78781;SDS011;68126;55.748;48.742;2023-07-24T06:34:12;5.75;;;2.33;;
78781;SDS011;68126;55.748;48.742;2023-07-24T06:39:36;8.78;;;2.27;;
78781;SDS011;68126;55.748;48.742;2023-07-24T06:45:01;5.50;;;2.80;;
78781;SDS011;68126;55.748;48.742;2023-07-24T06:50:28;3.70;;;3.17;;
78781;SDS011;68126;55.748;48.742;2023-07-24T06:55:52;3.90;;;1.55;;
78781;SDS011;68126;55.748;48.742;2023-07-24T07:01:17;5.62;;;2.05;;
78781;SDS011;68126;55.748;48.742;2023-07-24T07:06:42;3.42;;;2.62;;
78781;SDS011;68126;55.748;48.742;2023-07-24T07:12:07;6.55;;;2.47;;
78781;SDS011;68126;55.748;48.742;2023-07-24T07:17:32;6.47;;;3.17;;
78781;SDS011;68126;55.748;48.742;2023-07-24T07:22:56;6.22;;;2.75;;
78781;SDS011;68126;55.748;48.742;2023-07-24T07:28:21;4.85;;;2.83;;
78781;SDS011;68126;55.748;48.742;2023-07-24T07:33:46;7.10;;;3.37;;
78781;SDS011;68126;55.748;48.742;2023-07-24T07:39:10;7.42;;;3.65;;
78781;SDS011;68126;55.748;48.742;2023-07-24T07:44:35;9.68;;;3.98;;
78781;SDS011;68126;55.748;48.742;2023-07-24T07:50:00;5.87;;;2.95;;
78781;SDS011;68126;55.748;48.742;2023-07-24T07:55:27;6.50;;;3.12;;
78781;SDS011;68126;55.748;48.742;2023-07-24T08:00:51;5.50;;;2.75;;
78781;SDS011;68126;55.748;48.742;2023-07-24T08:06:16;4.62;;;2.30;;
78781;SDS011;68126;55.748;48.742;2023-07-24T08:11:41;4.17;;;2.05;;
78781;SDS011;68126;55.748;48.742;2023-07-24T08:17:06;4.35;;;2.55;;
78781;SDS011;68126;55.748;48.742;2023-07-24T08:22:30;4.42;;;2.15;;
78781;SDS011;68126;55.748;48.742;2023-07-24T08:27:55;4.85;;;2.22;;
78781;SDS011;68126;55.748;48.742;2023-07-24T08:33:20;9.53;;;2.52;;
78781;SDS011;68126;55.748;48.742;2023-07-24T08:38:45;4.95;;;2.67;;
78781;SDS011;68126;55.748;48.742;2023-07-24T08:44:09;5.20;;;2.85;;
78781;SDS011;68126;55.748;48.742;2023-07-24T08:49:35;5.53;;;3.92;;
78781;SDS011;68126;55.748;48.742;2023-07-24T08:55:02;7.35;;;3.75;;
78781;SDS011;68126;55.748;48.742;2023-07-24T09:00:28;6.28;;;2.83;;
78781;SDS011;68126;55.748;48.742;2023-07-24T09:05:53;5.10;;;3.60;;
78781;SDS011;68126;55.748;48.742;2023-07-24T09:11:18;6.87;;;4.17;;
78781;SDS011;68126;55.748;48.742;2023-07-24T09:16:43;6.05;;;2.72;;
78781;SDS011;68126;55.748;48.742;2023-07-24T09:32:58;2.12;;;1.85;;
78781;SDS011;68126;55.748;48.742;2023-07-24T09:38:23;3.27;;;1.32;;
78781;SDS011;68126;55.748;48.742;2023-07-24T09:43:57;5.60;;;2.00;;
78781;SDS011;68126;55.748;48.742;2023-07-24T09:49:14;3.47;;;0.80;;
78781;SDS011;68126;55.748;48.742;2023-07-24T09:55:15;2.17;;;1.22;;
78781;SDS011;68126;55.748;48.742;2023-07-24T10:00:07;1.42;;;0.78;;
78781;SDS011;68126;55.748;48.742;2023-07-24T10:05:32;3.47;;;1.80;;
78781;SDS011;68126;55.748;48.742;2023-07-24T10:11:32;4.15;;;0.85;;
78781;SDS011;68126;55.748;48.742;2023-07-24T10:16:23;1.57;;;0.62;;
78781;SDS011;68126;55.748;48.742;2023-07-24T10:21:48;2.15;;;0.90;;
78781;SDS011;68126;55.748;48.742;2023-07-24T10:27:14;4.47;;;1.60;;
78781;SDS011;68126;55.748;48.742;2023-07-24T10:38:32;6.28;;;1.60;;
78781;SDS011;68126;55.748;48.742;2023-07-24T10:43:50;1.70;;;0.80;;
78781;SDS011;68126;55.748;48.742;2023-07-24T11:01:23;1.87;;;0.88;;
78781;SDS011;68126;55.748;48.742;2023-07-24T11:06:52;5.12;;;0.68;;
78781;SDS011;68126;55.748;48.742;2023-07-24T11:12:14;1.90;;;0.75;;
78781;SDS011;68126;55.748;48.742;2023-07-24T11:17:59;1.65;;;0.75;;
78781;SDS011;68126;55.748;48.742;2023-07-24T11:23:24;1.45;;;0.75;;
78781;SDS011;68126;55.748;48.742;2023-07-24T11:28:50;2.77;;;0.98;;
78781;SDS011;68126;55.748;48.742;2023-07-24T11:34:15;3.15;;;0.80;;
78781;SDS011;68126;55.748;48.742;2023-07-24T11:39:40;4.50;;;1.65;;
78781;SDS011;68126;55.748;48.742;2023-07-24T11:45:41;1.72;;;0.93;;
78781;SDS011;68126;55.748;48.742;2023-07-24T11:50:41;4.03;;;1.22;;
78781;SDS011;68126;55.748;48.742;2023-07-24T11:55:59;1.92;;;1.05;;
78781;SDS011;68126;55.748;48.742;2023-07-24T12:01:24;4.20;;;0.72;;
78781;SDS011;68126;55.748;48.742;2023-07-24T12:12:13;5.30;;;0.53;;
78781;SDS011;68126;55.748;48.742;2023-07-24T12:17:39;2.40;;;0.53;;
78781;SDS011;68126;55.748;48.742;2023-07-24T12:23:04;2.12;;;0.90;;
78781;SDS011;68126;55.748;48.742;2023-07-24T12:28:29;2.00;;;0.60;;
78781;SDS011;68126;55.748;48.742;2023-07-24T12:33:53;2.62;;;0.47;;
78781;SDS011;68126;55.748;48.742;2023-07-24T12:39:18;1.37;;;0.62;;
78781;SDS011;68126;55.748;48.742;2023-07-24T12:44:43;3.37;;;0.62;;
78781;SDS011;68126;55.748;48.742;2023-07-24T12:50:08;1.30;;;0.62;;
78781;SDS011;68126;55.748;48.742;2023-07-24T13:00:59;2.20;;;1.10;;
78781;SDS011;68126;55.748;48.742;2023-07-24T13:06:24;1.98;;;0.33;;
78781;SDS011;68126;55.748;48.742;2023-07-24T13:11:49;1.00;;;0.30;;
78781;SDS011;68126;55.748;48.742;2023-07-24T13:17:15;0.70;;;0.53;;
78781;SDS011;68126;55.748;48.742;2023-07-24T13:22:42;2.52;;;0.85;;
78781;SDS011;68126;55.748;48.742;2023-07-24T13:28:09;1.37;;;0.80;;
78781;SDS011;68126;55.748;48.742;2023-07-24T13:33:33;1.10;;;0.88;;
78781;SDS011;68126;55.748;48.742;2023-07-24T13:38:58;4.08;;;1.60;;
78781;SDS011;68126;55.748;48.742;2023-07-24T13:44:23;3.22;;;1.02;;
78781;SDS011;68126;55.748;48.742;2023-07-24T13:49:48;7.22;;;2.47;;
78781;SDS011;68126;55.748;48.742;2023-07-24T13:55:12;3.25;;;1.25;;
78781;SDS011;68126;55.748;48.742;2023-07-24T14:00:37;2.58;;;1.35;;
78781;SDS011;68126;55.748;48.742;2023-07-24T14:06:02;5.12;;;1.55;;
78781;SDS011;68126;55.748;48.742;2023-07-24T14:11:27;8.15;;;1.15;;
78781;SDS011;68126;55.748;48.742;2023-07-24T14:16:52;13.32;;;1.95;;
78781;SDS011;68126;55.748;48.742;2023-07-24T14:22:16;2.58;;;0.47;;
78781;SDS011;68126;55.748;48.742;2023-07-24T14:27:41;2.95;;;1.00;;
78781;SDS011;68126;55.748;48.742;2023-07-24T14:33:06;1.72;;;0.33;;
78781;SDS011;68126;55.748;48.742;2023-07-24T14:38:31;1.98;;;0.62;;
78781;SDS011;68126;55.748;48.742;2023-07-24T14:43:57;1.05;;;0.30;;
78781;SDS011;68126;55.748;48.742;2023-07-24T14:49:22;1.55;;;0.72;;
78781;SDS011;68126;55.748;48.742;2023-07-24T14:54:47;1.98;;;0.60;;
78781;SDS011;68126;55.748;48.742;2023-07-24T15:00:12;1.32;;;0.62;;
78781;SDS011;68126;55.748;48.742;2023-07-24T15:05:38;2.02;;;0.62;;
78781;SDS011;68126;55.748;48.742;2023-07-24T15:11:03;8.23;;;1.10;;
78781;SDS011;68126;55.748;48.742;2023-07-24T15:16:28;2.83;;;0.68;;
78781;SDS011;68126;55.748;48.742;2023-07-24T15:27:16;2.52;;;1.05;;
78781;SDS011;68126;55.748;48.742;2023-07-24T15:32:41;2.15;;;0.93;;
78781;SDS011;68126;55.748;48.742;2023-07-24T15:38:06;2.90;;;1.37;;
78781;SDS011;68126;55.748;48.742;2023-07-24T15:43:30;1.50;;;0.70;;
78781;SDS011;68126;55.748;48.742;2023-07-24T15:49:15;3.02;;;1.75;;
78781;SDS011;68126;55.748;48.742;2023-07-24T15:54:40;2.20;;;1.47;;
78781;SDS011;68126;55.748;48.742;2023-07-24T16:00:05;2.22;;;1.52;;
78781;SDS011;68126;55.748;48.742;2023-07-24T16:05:30;1.77;;;1.30;;
78781;SDS011;68126;55.748;48.742;2023-07-24T16:10:56;5.80;;;3.42;;
78781;SDS011;68126;55.748;48.742;2023-07-24T16:16:21;5.22;;;2.35;;
78781;SDS011;68126;55.748;48.742;2023-07-24T16:21:47;2.85;;;1.15;;
78781;SDS011;68126;55.748;48.742;2023-07-24T16:32:38;3.37;;;1.82;;
78781;SDS011;68126;55.748;48.742;2023-07-24T16:38:04;3.12;;;1.55;;
78781;SDS011;68126;55.748;48.742;2023-07-24T16:43:29;4.83;;;1.25;;
78781;SDS011;68126;55.748;48.742;2023-07-24T16:48:54;2.85;;;1.10;;
78781;SDS011;68126;55.748;48.742;2023-07-24T16:54:19;2.62;;;1.25;;
78781;SDS011;68126;55.748;48.742;2023-07-24T16:59:44;2.77;;;1.52;;
78781;SDS011;68126;55.748;48.742;2023-07-24T17:16:20;4.08;;;1.62;;
78781;SDS011;68126;55.748;48.742;2023-07-24T17:21:45;2.27;;;1.70;;
78781;SDS011;68126;55.748;48.742;2023-07-24T17:27:10;2.42;;;1.40;;
78781;SDS011;68126;55.748;48.742;2023-07-24T17:32:34;4.45;;;1.82;;
78781;SDS011;68126;55.748;48.742;2023-07-24T17:37:59;5.65;;;3.10;;
78781;SDS011;68126;55.748;48.742;2023-07-24T17:43:24;2.27;;;1.25;;
78781;SDS011;68126;55.748;48.742;2023-07-24T17:48:49;3.58;;;2.00;;
78781;SDS011;68126;55.748;48.742;2023-07-24T17:59:40;2.37;;;1.37;;
78781;SDS011;68126;55.748;48.742;2023-07-24T18:05:05;2.25;;;1.50;;
78781;SDS011;68126;55.748;48.742;2023-07-24T18:10:30;4.05;;;1.37;;
78781;SDS011;68126;55.748;48.742;2023-07-24T18:15:55;2.05;;;1.35;;
78781;SDS011;68126;55.748;48.742;2023-07-24T18:21:20;2.17;;;1.27;;
78781;SDS011;68126;55.748;48.742;2023-07-24T18:26:45;2.42;;;1.30;;
78781;SDS011;68126;55.748;48.742;2023-07-24T18:32:10;1.87;;;1.00;;
78781;SDS011;68126;55.748;48.742;2023-07-24T18:37:35;4.40;;;1.05;;
78781;SDS011;68126;55.748;48.742;2023-07-24T18:43:00;3.67;;;3.05;;
78781;SDS011;68126;55.748;48.742;2023-07-24T18:48:24;3.30;;;1.12;;
78781;SDS011;68126;55.748;48.742;2023-07-24T18:53:49;3.50;;;1.15;;
78781;SDS011;68126;55.748;48.742;2023-07-24T18:59:14;1.90;;;1.15;;
78781;SDS011;68126;55.748;48.742;2023-07-24T19:04:39;3.20;;;2.15;;
78781;SDS011;68126;55.748;48.742;2023-07-24T19:10:03;6.05;;;2.22;;
78781;SDS011;68126;55.748;48.742;2023-07-24T19:15:30;2.72;;;1.22;;
78781;SDS011;68126;55.748;48.742;2023-07-24T19:20:55;2.85;;;1.90;;
78781;SDS011;68126;55.748;48.742;2023-07-24T19:26:20;4.20;;;1.57;;
78781;SDS011;68126;55.748;48.742;2023-07-24T19:31:44;2.83;;;1.55;;
78781;SDS011;68126;55.748;48.742;2023-07-24T19:37:11;3.22;;;1.77;;
78781;SDS011;68126;55.748;48.742;2023-07-24T19:42:35;2.92;;;1.50;;
78781;SDS011;68126;55.748;48.742;2023-07-24T19:48:02;3.72;;;2.08;;
78781;SDS011;68126;55.748;48.742;2023-07-24T19:53:27;2.12;;;1.27;;
78781;SDS011;68126;55.748;48.742;2023-07-24T19:58:52;2.77;;;1.52;;
78781;SDS011;68126;55.748;48.742;2023-07-24T20:04:16;3.25;;;1.20;;
78781;SDS011;68126;55.748;48.742;2023-07-24T20:09:43;3.67;;;1.92;;
78781;SDS011;68126;55.748;48.742;2023-07-24T20:15:09;3.45;;;1.95;;
78781;SDS011;68126;55.748;48.742;2023-07-24T20:20:35;3.55;;;1.80;;
78781;SDS011;68126;55.748;48.742;2023-07-24T20:26:00;6.70;;;1.60;;
78781;SDS011;68126;55.748;48.742;2023-07-24T20:31:25;2.98;;;2.22;;
78781;SDS011;68126;55.748;48.742;2023-07-24T20:36:50;2.42;;;2.15;;
78781;SDS011;68126;55.748;48.742;2023-07-24T20:42:14;2.90;;;1.80;;
78781;SDS011;68126;55.748;48.742;2023-07-24T20:47:39;4.90;;;2.00;;
78781;SDS011;68126;55.748;48.742;2023-07-24T20:53:04;2.30;;;1.80;;
78781;SDS011;68126;55.748;48.742;2023-07-24T21:04:24;5.83;;;2.47;;
78781;SDS011;68126;55.748;48.742;2023-07-24T21:09:49;2.50;;;1.87;;
78781;SDS011;68126;55.748;48.742;2023-07-24T21:15:14;2.55;;;1.65;;
78781;SDS011;68126;55.748;48.742;2023-07-24T21:20:39;2.30;;;1.75;;
78781;SDS011;68126;55.748;48.742;2023-07-24T21:26:04;3.58;;;1.90;;
78781;SDS011;68126;55.748;48.742;2023-07-24T21:31:29;2.08;;;1.40;;
78781;SDS011;68126;55.748;48.742;2023-07-24T21:36:53;2.42;;;1.72;;
78781;SDS011;68126;55.748;48.742;2023-07-24T21:42:18;2.15;;;1.60;;
78781;SDS011;68126;55.748;48.742;2023-07-24T21:47:43;2.15;;;1.37;;
78781;SDS011;68126;55.748;48.742;2023-07-24T21:53:08;3.33;;;1.40;;
78781;SDS011;68126;55.748;48.742;2023-07-24T21:58:32;2.55;;;1.65;;
78781;SDS011;68126;55.748;48.742;2023-07-24T22:03:57;3.42;;;1.47;;
78781;SDS011;68126;55.748;48.742;2023-07-24T22:09:22;1.95;;;1.20;;
78781;SDS011;68126;55.748;48.742;2023-07-24T22:14:47;4.35;;;1.82;;
78781;SDS011;68126;55.748;48.742;2023-07-24T22:20:12;2.85;;;1.42;;
78781;SDS011;68126;55.748;48.742;2023-07-24T22:25:37;2.50;;;1.92;;
78781;SDS011;68126;55.748;48.742;2023-07-24T22:36:46;2.17;;;1.45;;
78781;SDS011;68126;55.748;48.742;2023-07-24T22:42:11;2.27;;;1.42;;
78781;SDS011;68126;55.748;48.742;2023-07-24T22:47:36;3.22;;;1.17;;
78781;SDS011;68126;55.748;48.742;2023-07-24T22:53:00;3.65;;;1.30;;
78781;SDS011;68126;55.748;48.742;2023-07-24T22:58:25;2.77;;;1.27;;
78781;SDS011;68126;55.748;48.742;2023-07-24T23:03:50;3.83;;;1.12;;
78781;SDS011;68126;55.748;48.742;2023-07-24T23:09:15;2.42;;;1.42;;
78781;SDS011;68126;55.748;48.742;2023-07-24T23:14:39;2.35;;;1.45;;
78781;SDS011;68126;55.748;48.742;2023-07-24T23:20:04;2.75;;;1.42;;
78781;SDS011;68126;55.748;48.742;2023-07-24T23:25:30;3.08;;;1.07;;
78781;SDS011;68126;55.748;48.742;2023-07-24T23:30:54;2.67;;;2.12;;
78781;SDS011;68126;55.748;48.742;2023-07-24T23:36:19;4.37;;;1.22;;
78781;SDS011;68126;55.748;48.742;2023-07-24T23:41:44;2.05;;;1.57;;
78781;SDS011;68126;55.748;48.742;2023-07-24T23:47:09;2.08;;;1.15;;
78781;SDS011;68126;55.748;48.742;2023-07-24T23:52:33;3.55;;;1.37;;
78781;SDS011;68126;55.748;48.742;2023-07-24T23:57:58;2.42;;;1.57;;
